Bollullos de la Mitacion, Spain
Current Conditions -  °F | °C
As of 3:00 PM on Friday 24 Oct 2014 (Local Time) from LEZL Reporting Station
Clear Clear  
Wind Chill: 82°   Ceiling: Unl
Heat Index: 82°   Visibility: 6mi
Dew Point: 46°   Wind: 13mph
Humidity: 28%   Direction: 50°NE
Pressure: 29.97"   Gusts: NA
Location:  37.34°N, 6.14°W
Report Text: LEZL 241300Z 05011KT CAVOK 28/08 Q1015 NOSIG
Loading
Personal Weather Stations






























Interactive Weather Map
Tropical Storm Tracking
New forecast layout! Learn more

10-Day Weather Forecast

Advertisements
Track Severe Weather on mobile